Home > Products > Valid Products > MTR

000
SAUS41 KOKX 222156
MTRMTP
METAR KMTP 222154Z AUTO 27009G17KT 21/11 A2992 RMK AO1 SLP132
T02110106





000
SAUS41 KOKX 222152
MTRNYC
METAR KNYC 222151Z AUTO 30007KT 270V340 10SM CLR 18/06 A3002 RMK AO2
SLP157 T01830056





000
SAUS41 KOKX 222055
MTRMTP
METAR KMTP 222054Z AUTO 29007KT 21/11 A2989 RMK AO1 SLP122 T02110111
51017





000
SAUS41 KOKX 222052
MTRNYC
METAR KNYC 222051Z AUTO 29009G14KT 10SM CLR 19/06 A2998 RMK AO2
SLP143 T01940061 53016





000
SAUS41 KOKX 221956
MTRMTP
METAR KMTP 221954Z AUTO 28007KT 22/12 A2988 RMK AO1 SLP116 T02220117





000
SAUS41 KOKX 221952
MTRNYC
METAR KNYC 221951Z AUTO 29009G20KT 10SM SCT050 21/06 A2995 RMK AO2
SLP133 T02060061





000
SAUS41 KOKX 221855
MTRMTP
METAR KMTP 221854Z AUTO 26010G17KT 22/12 A2986 RMK AO1 SLP112
T02170117





000
SAUS41 KOKX 221852
MTRNYC
METAR KNYC 221851Z AUTO 28007G17KT 240V350 10SM FEW050 21/08 A2995
RMK AO2 SLP133 T02060078





000
SAUS41 KOKX 221807
MTRNYC

METAR KNYC 221751Z AUTO VRB05KT 10SM OVC047 20/08 A2993 RMK AO2
SLP127      T02000083 10217 20178 51012








000
SAUS41 KOKX 221755
MTRMTP
METAR KMTP 221754Z AUTO 28009KT 22/13 A2984 RMK AO1 SLP106 T02220128
10228 20200 53006





000
SAUS41 KOKX 221752
MTRNYC
METAR KNYC 221751Z AUTO VRB05KT 10SM OVC047 20/08 A2993 RMK AO2
SLP127 T02000083 10217 20178 51012





000
SAUS41 KOKX 221655
MTRMTP
METAR KMTP 221654Z AUTO 26010KT 22/13 A2984 RMK AO1 SLP104 T02220128





000
SAUS41 KOKX 221652
MTRNYC
METAR KNYC 221651Z AUTO VRB06KT 10SM OVC045 20/08 A2992 RMK AO2
SLP124 T02000083





000
SAUS41 KOKX 221555
MTRMTP
METAR KMTP 221554Z AUTO 28010G17KT 22/13 A2983 RMK AO1 SLP100
T02170133





000
SAUS41 KOKX 221552
MTRNYC
METAR KNYC 221551Z AUTO 32007G17KT 290V030 10SM OVC042 20/09 A2991
RMK AO2 SLP120 T02000089





000
SAUS41 KOKX 221456
MTRMTP
METAR KMTP 221454Z AUTO 27012G18KT 21/13 A2983 RMK AO1 SLP100
T02110133 51025





000
SAUS41 KOKX 221452
MTRNYC
METAR KNYC 221451Z AUTO VRB06G17KT 10SM SCT039 20/09 A2990 RMK AO2
SLP115 T02000089 51025





000
SAUS41 KOKX 221355
MTRMTP
METAR KMTP 221354Z AUTO 26013G18KT 21/14 A2981 RMK AO1 SLP093
T02060139





000
SAUS41 KOKX 221353
MTRNYC
METAR KNYC 221351Z AUTO VRB06KT 10SM BKN035 19/11 A2989 RMK AO2
SLP114 T01890106





000
SAUS41 KOKX 221255
MTRMTP
METAR KMTP 221254Z AUTO 28012G19KT 20/14 A2978 RMK AO1 SLP085
T02000139





000
SAUS41 KOKX 221253
MTRNYC
METAR KNYC 221251Z AUTO VRB04G16KT 10SM CLR 18/11 A2986 RMK AO2
SLP103 T01830106





000
SAUS41 KOKX 221155
MTRMTP
METAR KMTP 221154Z AUTO 27010G17KT 20/14 A2975 RMK AO1 SLP075 70014
T02000139 10211 20194 53034





000
SAUS41 KOKX 221152
MTRNYC
METAR KNYC 221151Z AUTO 27008KT 250V310 10SM CLR 18/11 A2982 RMK AO2
SLP090 T01780111 10206 20172 52032





000
SAUS41 KOKX 221055
MTRMTP
METAR KMTP 221054Z AUTO 28009KT 20/14 A2972 RMK AO1 SLP063 T02000139





000
SAUS41 KOKX 221052
MTRNYC
METAR KNYC 221051Z AUTO 27006KT 10SM CLR 18/12 A2980 RMK AO2 SLP080
T01780117





000
SAUS41 KOKX 221042
MTRNYC
SPECI KNYC 221041Z AUTO VRB05KT 10SM FEW001 18/11 A2979 RMK AO2
T01780111





000
SAUS41 KOKX 220955
MTRMTP
METAR KMTP 220954Z AUTO 26006KT 20/17 A2969 RMK AO1 SLP052 T02000167





000
SAUS41 KOKX 220953
MTRNYC
METAR KNYC 220951Z AUTO 00000KT 10SM CLR 18/12 A2976 RMK AO2 SLP068
T01780122





000
SAUS41 KOKX 220855
MTRMTP
METAR KMTP 220854Z AUTO 27007KT 21/18 A2965 RMK AO1 SLP041 T02060183
53012





000
SAUS41 KOKX 220852
MTRNYC
METAR KNYC 220851Z AUTO VRB05KT 10SM CLR 19/14 A2973 RMK AO2 SLP058
T01890139 53015





000
SAUS41 KOKX 220755
MTRMTP
METAR KMTP 220754Z AUTO 25009KT 21/19 A2963 RMK AO1 SLP031 T02060194





000
SAUS41 KOKX 220752
MTRNYC
METAR KNYC 220751Z AUTO 30005KT 10SM SCT060 19/14 A2971 RMK AO2
SLP051 T01940139





000
SAUS41 KOKX 220655
MTRMTP
METAR KMTP 220654Z AUTO 24007KT 21/19 A2962 RMK AO1 SLP029 T02060194





000
SAUS41 KOKX 220653
MTRNYC
METAR KNYC 220651Z AUTO VRB04KT 10SM FEW055 20/14 A2970 RMK AO2
SLP046 T02000139





000
SAUS41 KOKX 220555
MTRMTP
METAR KMTP 220554Z AUTO 23006KT 20/19 A2962 RMK AO1 SLP030 T02000194
10211 20200 50000





000
SAUS41 KOKX 220552
MTRNYC
METAR KNYC 220551Z AUTO VRB06KT 10SM FEW034 BKN043 BKN055 20/16
A2969 RMK AO2 RAE07 SLP043 P0000 60000 T02000156 10222 20200 53012





000
SAUS41 KOKX 220534
MTRNYC
SPECI KNYC 220532Z AUTO 00000KT 10SM FEW019 BKN033 OVC110 21/16
A2968 RMK AO2 RAE07 P0000 T02060161





000
SAUS41 KOKX 220502
MTRNYC
SPECI KNYC 220501Z AUTO 29005KT 7SM -RA SCT015 BKN023 OVC060 21/19
A2967 RMK AO2 P0000 T02110189





000
SAUS41 KOKX 220455
MTRMTP
METAR KMTP 220454Z AUTO 23005KT 20/19 A2962 RMK AO1 SLP029 T02000189
402560200





000
SAUS41 KOKX 220453
MTRNYC
METAR KNYC 220451Z AUTO 27004KT 8SM -RA FEW015 SCT028 OVC060 22/19
A2967 RMK AO2 RAB37 SLP036 P0000 T02170189 402390194





000
SAUS41 KOKX 220355
MTRMTP
METAR KMTP 220354Z AUTO 00000KT 20/20 A2962 RMK AO1 SLP031 T02000200





000
SAUS41 KOKX 220352
MTRNYC
METAR KNYC 220351Z AUTO VRB04KT 10SM FEW060 FEW075 BKN100 22/18
A2964 RMK AO2 SLP029 T02220183





000
SAUS41 KOKX 220255
MTRMTP
METAR KMTP 220254Z AUTO 24003KT 21/20 A2962 RMK AO1 SLP029 T02110200
55001





000
SAUS41 KOKX 220253
MTRNYC
METAR KNYC 220251Z AUTO VRB03KT 9SM CLR 22/19 A2965 RMK AO2 SLP032
T02170194 53001





000
SAUS41 KOKX 220155
MTRMTP
METAR KMTP 220154Z AUTO 00000KT 21/19 A2961 RMK AO1 SLP028 T02060194





000
SAUS41 KOKX 220152
MTRNYC
METAR KNYC 220151Z AUTO 24004KT 10SM CLR 22/18 A2965 RMK AO2 SLP032
T02170183





000
SAUS41 KOKX 220055
MTRMTP
METAR KMTP 220054Z AUTO 00000KT 21/19 A2962 RMK AO1 SLP029 T02060194





000
SAUS41 KOKX 220052
MTRNYC
METAR KNYC 220051Z AUTO 26003KT 10SM CLR 22/18 A2964 RMK AO2 SLP029
T02170183





000
SAUS41 KOKX 212355
MTRMTP
METAR KMTP 212354Z AUTO 00000KT 20/19 A2962 RMK AO1 SLP030 60014
T02000194 10244 20200 56021





000
SAUS41 KOKX 212352
MTRNYC
METAR KNYC 212351Z AUTO VRB03KT 8SM CLR 22/18 A2965 RMK AO2 SLP030
T02220183 10239 20222 55011





000
SAUS41 KOKX 212255
MTRMTP
METAR KMTP 212254Z AUTO 00000KT 21/19 A2963 RMK AO1 SLP031 T02060194





000
SAUS41 KOKX 212253
MTRNYC
METAR KNYC 212251Z AUTO 00000KT 8SM CLR 23/18 A2964 RMK AO2 SLP026
T02280183





000
SAUS41 KOKX 212156
MTRMTP
METAR KMTP 212154Z AUTO 00000KT 21/19 A2964 RMK AO1 SLP037 T02110194





000
SAUS41 KOKX 212152
MTRNYC
METAR KNYC 212151Z AUTO 00000KT 6SM HZ CLR 23/19 A2965 RMK AO2
SLP031 T02330189





000
SAUS41 KOKX 212055
MTRMTP
METAR KMTP 212054Z AUTO 23003KT 21/20 A2968 RMK AO1 SLP051 P0004
60014 T02060200 56027





000
SAUS41 KOKX 212052
MTRNYC
METAR KNYC 212051Z AUTO 00000KT 7SM CLR 24/19 A2968 RMK AO2 SLP041
T02390189 56033





000
SAUS41 KOKX 212024
MTRNYC
SPECI KNYC 212023Z AUTO 00000KT 6SM HZ FEW021 24/19 A2969 RMK AO2
T02390194





000
SAUS41 KOKX 211955
MTRMTP
METAR KMTP 211954Z AUTO 15008KT 21/19 A2971 RMK AO1 SLP061 P0010
T02110194





000
SAUS41 KOKX 211952
MTRNYC
METAR KNYC 211951Z AUTO 00000KT 6SM HZ BKN020 BKN028 23/19 A2971 RMK
AO2 SLP050 T02330194





000
SAUS41 KOKX 211930
MTRNYC
SPECI KNYC 211929Z AUTO 00000KT 5SM HZ FEW015 BKN022 BKN038 24/19
A2972 RMK AO2 T02390194





000
SAUS41 KOKX 211855
MTRMTP
METAR KMTP 211854Z AUTO 11006KT 24/22 A2973 RMK AO1 SLP067 T02390217





000
SAUS41 KOKX 211852
MTRNYC
METAR KNYC 211851Z AUTO 00000KT 5SM HZ BKN036 23/19 A2975 RMK AO2
SLP064 T02330194





000
SAUS41 KOKX 211816
MTRNYC
SPECI KNYC 211815Z AUTO 00000KT 4SM HZ SCT017 OVC033 23/19 A2976 RMK
AO2 T02280194





000
SAUS41 KOKX 211802
MTRNYC
SPECI KNYC 211800Z AUTO VRB04KT 3SM HZ SCT008 BKN017 OVC023 22/19
A2977 RMK AO2 T02220194





000
SAUS41 KOKX 211755
MTRMTP
METAR KMTP 211754Z AUTO VRB05KT 24/22 A2976 RMK AO1 SLP079 T02390217
10256 20217 58042





000
SAUS41 KOKX 211752
MTRNYC
METAR KNYC 211751Z AUTO 30005KT 3SM HZ BKN008 OVC016 22/19 A2978 RMK
AO2 SLP074 T02220194 10222 20206 58022





000
SAUS41 KOKX 211706
MTRNYC
SPECI KNYC 211705Z AUTO VRB04KT 3SM BR BKN008 OVC013 22/19 A2981 RMK
AO2 T02170194





000
SAUS41 KOKX 211655
MTRMTP
METAR KMTP 211654Z AUTO VRB05KT 24/22 A2981 RMK AO1 SLP095 T02440217





000
SAUS41 KOKX 211653
MTRNYC
METAR KNYC 211651Z AUTO VRB03KT 3SM BR BKN010 OVC016 22/19 A2982 RMK
AO2 CIG 008V013 SLP087 T02170194





000
SAUS41 KOKX 211631
MTRNYC
SPECI KNYC 211630Z AUTO 00000KT 3SM HZ OVC010 22/19 A2983 RMK AO2
CIG 008V012 T02220194





000
SAUS41 KOKX 211555
MTRMTP
METAR KMTP 211554Z AUTO VRB04KT 24/22 A2986 RMK AO1 SLP110 T02440217





000
SAUS41 KOKX 211553
MTRNYC
METAR KNYC 211551Z AUTO 00000KT 3SM HZ BKN009 OVC016 22/19 A2984 RMK
AO2 CIG 008V014 SLP096 T02220194





000
SAUS41 KOKX 211550
MTRNYC
SPECI KNYC 211549Z AUTO VRB03KT 3SM HZ BKN009 OVC016 22/19 A2984 RMK
AO2 CIG 008V014





000
SAUS41 KOKX 211541
MTRNYC
SPECI KNYC 211539Z AUTO VRB03KT 3SM HZ BKN011 OVC018 22/19 A2985 RMK
AO2 CIG 008V014 T02220194





000
SAUS41 KOKX 211534
MTRNYC
SPECI KNYC 211532Z AUTO 29003KT 3SM HZ OVC015 22/19 A2985 RMK AO2
T02220194





000
SAUS41 KOKX 211455
MTRMTP
METAR KMTP 211454Z AUTO 14006KT 24/21 A2989 RMK AO1 SLP120 T02390211
56019





000
SAUS41 KOKX 211452
MTRNYC
METAR KNYC 211451Z AUTO 00000KT 3SM HZ OVC010 22/19 A2988 RMK AO2
SLP107 T02220194 58014





000
SAUS41 KOKX 211440
MTRNYC
SPECI KNYC 211439Z AUTO 00000KT 2 1/2SM BR OVC010 22/19 A2988 RMK
AO2 T02170194





000
SAUS41 KOKX 211432
MTRNYC
SPECI KNYC 211431Z AUTO 00000KT 3SM BR OVC010 22/19 A2989 RMK AO2
T02170194





000
SAUS41 KOKX 211403
MTRNYC
SPECI KNYC 211402Z AUTO 00000KT 2SM BR OVC010 22/19 A2990 RMK AO2
CIG 007V013 T02170194





000
SAUS41 KOKX 211355
MTRMTP
METAR KMTP 211354Z AUTO VRB05KT 23/21 A2991 RMK AO1 SLP128 T02330206





000
SAUS41 KOKX 211353
MTRNYC
METAR KNYC 211351Z AUTO 00000KT 2 1/2SM BR OVC009 21/19 A2990 RMK
AO2 CIG 007V012 SLP115 T02110194





000
SAUS41 KOKX 211333
MTRNYC
SPECI KNYC 211331Z AUTO 33003KT 1 3/4SM BR OVC007 21/19 A2990 RMK
AO2 T02110194





000
SAUS41 KOKX 211302
MTRNYC
SPECI KNYC 211300Z AUTO 00000KT 2 1/2SM BR OVC006 21/19 A2991 RMK
AO2 CIG 006V011 T02060189





000
SAUS41 KOKX 211256
MTRMTP
METAR KMTP 211254Z AUTO 15006KT 23/21 A2992 RMK AO1 SLP131 T02280206





000
SAUS41 KOKX 211252
MTRNYC
METAR KNYC 211251Z AUTO 00000KT 1 3/4SM BR OVC008 21/19 A2992 RMK
AO2 CIG 005V011 SLP122 T02060194





000
SAUS41 KOKX 211251
MTRNYC
SPECI KNYC 211249Z AUTO 00000KT 1 3/4SM BR OVC008 21/19 A2992 RMK
AO2 CIG 005V011





000
SAUS41 KOKX 211229
MTRNYC
SPECI KNYC 211228Z AUTO 00000KT 2SM BR OVC008 21/19 A2992 RMK AO2
T02060194





000
SAUS41 KOKX 211222
MTRNYC
SPECI KNYC 211221Z AUTO 00000KT 3SM BR OVC008 21/19 A2992 RMK AO2
T02060189





000
SAUS41 KOKX 211155
MTRMTP
METAR KMTP 211154Z AUTO 17005KT 21/20 A2994 RMK AO1 SLP139 T02110200
10217 20211 56010





000
SAUS41 KOKX 211152
MTRNYC
METAR KNYC 211151Z AUTO 00000KT 1 1/2SM BR OVC007 20/19 A2994 RMK
AO2 SLP128 60013 70015 T02000189 10200 20194 55001





000
SAUS41 KOKX 211139
MTRNYC
SPECI KNYC 211138Z AUTO 00000KT 1 3/4SM BR BKN007 OVC011 20/19 A2994
RMK AO2 T02000189





000
SAUS41 KOKX 211127
MTRNYC
SPECI KNYC 211126Z AUTO 29003KT 3/4SM BR BKN007 OVC011 20/19 A2994
RMK AO2 CIG 005V009 T02000189





000
SAUS41 KOKX 211120
MTRNYC
SPECI KNYC 211119Z AUTO 00000KT 1SM BR OVC006 20/19 A2994 RMK AO2
CIG 005V011 T02000189





000
SAUS41 KOKX 211106
MTRNYC
SPECI KNYC 211105Z AUTO 00000KT 2 1/2SM BR OVC006 20/18 A2993 RMK
AO2 T02000183





000
SAUS41 KOKX 211055
MTRMTP
METAR KMTP 211054Z AUTO 16005KT 21/20 A2995 RMK AO1 SLP141 T02110200





000
SAUS41 KOKX 211053
MTRNYC
METAR KNYC 211051Z AUTO 00000KT 1SM BR OVC006 20/18 A2993 RMK AO2
SLP127 T02000183





000
SAUS41 KOKX 211040
MTRNYC
SPECI KNYC 211038Z AUTO 00000KT 1 1/2SM BR OVC006 20/18 A2993 RMK
AO2 T02000183





000
SAUS41 KOKX 210955
MTRMTP
METAR KMTP 210954Z AUTO VRB06KT 21/19 A2996 RMK AO1 SLP144 T02110194





000
SAUS41 KOKX 210952
MTRNYC
METAR KNYC 210951Z AUTO VRB05KT 2 1/2SM BR OVC005 19/18 A2994 RMK
AO2 SLP128 T01940183





000
SAUS41 KOKX 210950
MTRNYC
SPECI KNYC 210948Z AUTO 13004KT 2 1/2SM BR OVC005 19/18 A2994 RMK
AO2





000
SAUS41 KOKX 210856
MTRMTP
METAR KMTP 210854Z AUTO 16007KT 21/19 A2997 RMK AO1 SLP149 T02110194
56026





000
SAUS41 KOKX 210852
MTRNYC
METAR KNYC 210851Z AUTO 00000KT 1 1/2SM BR OVC007 19/18 A2996 RMK
AO2 SLP136 60013 T01940178 56017





000
SAUS41 KOKX 210812
MTRNYC
SPECI KNYC 210811Z AUTO 00000KT 1 1/2SM BR OVC008 19/18 A2997 RMK
AO2 CIG 005V010 T01940178





000
SAUS41 KOKX 210803
MTRNYC
SPECI KNYC 210802Z AUTO 00000KT 2SM BR OVC008 19/18 A2998 RMK AO2
CIG 005V011 T01940178





000
SAUS41 KOKX 210755
MTRMTP
METAR KMTP 210754Z AUTO 15006KT 21/19 A2999 RMK AO1 SLP155 T02110194





000
SAUS41 KOKX 210753
MTRNYC
METAR KNYC 210751Z AUTO 00000KT 3SM BR BKN006 OVC010 19/18 A2998 RMK
AO2 RAB0659E22 SLP144 P0010 T01940178





000
SAUS41 KOKX 210751
MTRNYC
SPECI KNYC 210749Z AUTO 00000KT 4SM BR BKN006 OVC010 19/18 A2998 RMK
AO2 RAB0659E22 P0010





000
SAUS41 KOKX 210724
MTRNYC
SPECI KNYC 210723Z AUTO VRB03KT 3SM BR BKN010 OVC015 19/18 A2999 RMK
AO2 RAB0659E22 P0010 T01940178





000
SAUS41 KOKX 210706
MTRNYC
SPECI KNYC 210704Z AUTO 00000KT 1 1/2SM +RA BR OVC010 19/18 A3001
RMK AO2 RAB0659 P0002 T01940178





000
SAUS41 KOKX 210655
MTRMTP
METAR KMTP 210654Z AUTO VRB03KT 21/19 A3001 RMK AO1 SLP162 T02110189





000
SAUS41 KOKX 210652
MTRNYC
METAR KNYC 210651Z AUTO 00000KT 3SM BR OVC010 19/18 A3001 RMK AO2
RAB03E46 CIG 006V011 SLP153 P0003 T01940178





000
SAUS41 KOKX 210644
MTRNYC
SPECI KNYC 210643Z AUTO VRB03KT 4SM -RA BR OVC009 19/18 A3001 RMK
AO2 RAB03 CIG 006V011 P0003 T01940178





000
SAUS41 KOKX 210635
MTRNYC
SPECI KNYC 210634Z AUTO 00000KT 2 1/2SM -RA BR OVC009 19/18 A3002
RMK AO2 RAB03 CIG 006V011 P0003 T01940178





000
SAUS41 KOKX 210556
MTRMTP
METAR KMTP 210554Z AUTO VRB03KT 21/18 A3005 RMK AO1 SLP176 T02110183
10211 20183 58021





000
SAUS41 KOKX 210553
MTRNYC
METAR KNYC 210551Z AUTO 00000KT 5SM BR OVC013 20/18 A3004 RMK AO2
RAB06E33 SLP162 P0002 60002 T02000183 10217 20200 58022





000
SAUS41 KOKX 210541
MTRNYC
SPECI KNYC 210540Z AUTO 00000KT 6SM BR OVC013 20/18 A3005 RMK AO2
RAB06E33 P0002 T02000183





000
SAUS41 KOKX 210455
MTRMTP
METAR KMTP 210454Z AUTO 15004KT 21/18 A3008 RMK AO1 SLP186 T02060183
402280111





000
SAUS41 KOKX 210452
MTRNYC
METAR KNYC 210451Z AUTO 00000KT 10SM OVC017 22/17 A3006 RMK AO2
SLP171 T02170167 402390139





000
SAUS41 KOKX 210355
MTRMTP
METAR KMTP 210354Z AUTO 00000KT 21/18 A3010 RMK AO1 SLP192 T02060183





000
SAUS41 KOKX 210352
MTRNYC
METAR KNYC 210351Z AUTO 00000KT 10SM OVC022 21/17 A3009 RMK AO2
SLP180 T02110167





000
SAUS41 KOKX 210310
MTRNYC
SPECI KNYC 210307Z AUTO 00000KT 10SM BKN027 OVC036 21/17 A3009 RMK
AO2 T02110172





000
SAUS41 KOKX 210255
MTRMTP
METAR KMTP 210254Z AUTO VRB03KT 21/18 A3012 RMK AO1 SLP197 T02060183
58018





000
SAUS41 KOKX 210252
MTRNYC
METAR KNYC 210251Z AUTO 00000KT 9SM BKN036 21/17 A3010 RMK AO2
SLP184 T02060172 58013





000
SAUS41 KOKX 210155
MTRMTP
METAR KMTP 210154Z AUTO 15003KT 20/18 A3014 RMK AO1 SLP207 T02000178





000
SAUS41 KOKX 210153
MTRNYC
METAR KNYC 210151Z AUTO VRB06KT 9SM CLR 21/17 A3012 RMK AO2 SLP190
T02060167





000
SAUS41 KOKX 210055
MTRMTP
METAR KMTP 210054Z AUTO 00000KT 20/17 A3016 RMK AO1 SLP214 T02000172





000
SAUS41 KOKX 210053
MTRNYC
METAR KNYC 210051Z AUTO 18004KT 9SM CLR 20/16 A3014 RMK AO2 SLP198
T02000161





000
SAUS41 KOKX 202355
MTRMTP
METAR KMTP 202354Z AUTO 00000KT 18/16 A3017 RMK AO1 SLP215 T01830161
10228 20183 56016





000
SAUS41 KOKX 202352
MTRNYC
METAR KNYC 202351Z AUTO VRB03KT 10SM CLR 21/16 A3014 RMK AO2 SLP197
T02110156 10239 20206 56015





000
SAUS41 KOKX 202255
MTRMTP
METAR KMTP 202254Z AUTO 00000KT 19/16 A3018 RMK AO1 SLP219 T01940156





000
SAUS41 KOKX 202253
MTRNYC
METAR KNYC 202251Z AUTO VRB03KT 10SM CLR 21/14 A3015 RMK AO2 SLP199
T02110144





000
SAUS41 KOKX 202155
MTRMTP
METAR KMTP 202154Z AUTO 19003KT 21/15 A3020 RMK AO1 SLP226 T02110150





000
SAUS41 KOKX 202152
MTRNYC
METAR KNYC 202151Z AUTO 10SM CLR 22/12 A3016 RMK AO2 SLP205
T02170122





000
SAUS41 KOKX 202055
MTRMTP
METAR KMTP 202054Z AUTO VRB04KT 22/14 A3021 RMK AO1 SLP231 T02170139
56015





000
SAUS41 KOKX 202052
MTRNYC
METAR KNYC 202051Z AUTO 15008KT 090V180 10SM SCT030 22/14 A3018 RMK
AO2 SLP212 T02220144 56015





000
SAUS41 KOKX 201955
MTRMTP
METAR KMTP 201954Z AUTO VRB05KT 22/13 A3022 RMK AO1 SLP232 T02220133





000
SAUS41 KOKX 201953
MTRNYC
METAR KNYC 201951Z AUTO VRB05G18KT 10SM FEW028 BKN036 BKN045 22/14
A3020 RMK AO2 SLP217 T02220144





000
SAUS41 KOKX 201942
MTRNYC
SPECI KNYC 201941Z AUTO VRB04KT 10SM FEW028 SCT036 BKN043 22/14
A3020 RMK AO2 T02220144





000
SAUS41 KOKX 201925
MTRNYC
SPECI KNYC 201924Z AUTO 18005KT 10SM BKN029 BKN034 BKN043 22/14
A3020 RMK AO2 T02220139





000
SAUS41 KOKX 201855
MTRMTP
METAR KMTP 201854Z AUTO VRB05KT 22/12 A3024 RMK AO1 SLP238 T02220122





000
SAUS41 KOKX 201852
MTRNYC
METAR KNYC 201851Z AUTO 10SM FEW029 SCT040 22/14 A3021 RMK AO2
SLP220 T02220139





000
SAUS41 KOKX 201755
MTRMTP
METAR KMTP 201754Z AUTO 18006KT 22/12 A3026 RMK AO1 SLP246 T02220122
10222 20167 58017





000
SAUS41 KOKX 201752
MTRNYC
METAR KNYC 201751Z AUTO VRB06KT 10SM FEW037 23/14 A3023 RMK AO2
SLP227 T02280139 10233 20167 58021





000
SAUS41 KOKX 201655
MTRMTP
METAR KMTP 201654Z AUTO 15005KT 22/13 A3028 RMK AO1 SLP252 T02220133





000
SAUS41 KOKX 201653
MTRNYC
METAR KNYC 201651Z AUTO VRB06KT 10SM FEW029 BKN040 22/14 A3026 RMK
AO2 SLP239 T02220139





000
SAUS41 KOKX 201555
MTRMTP
METAR KMTP 201554Z AUTO VRB05KT 21/13 A3030 RMK AO1 SLP258 T02110128





000
SAUS41 KOKX 201552
MTRNYC
METAR KNYC 201551Z AUTO VRB05KT 10SM BKN034 22/13 A3028 RMK AO2
SLP246 T02170128





000
SAUS41 KOKX 201455
MTRMTP
METAR KMTP 201454Z AUTO 15007KT 21/12 A3031 RMK AO1 SLP263 T02060122
58013





000
SAUS41 KOKX 201453
MTRNYC
METAR KNYC 201451Z AUTO 10SM FEW034 21/13 A3029 RMK AO2 SLP248
T02110133 58010





000
SAUS41 KOKX 201359
MTRNYC
SPECI KNYC 201358Z AUTO VRB04KT 10SM SCT028 BKN034 20/13 A3031 RMK
AO2 T02000128





000
SAUS41 KOKX 201355
MTRMTP
METAR KMTP 201354Z AUTO 14008KT 120V180 19/12 A3032 RMK AO1 SLP267
T01890122





000
SAUS41 KOKX 201353
MTRNYC
METAR KNYC 201351Z AUTO VRB03KT 10SM BKN028 BKN034 19/13 A3031 RMK
AO2 SLP255 T01940128





000
SAUS41 KOKX 201330
MTRNYC
SPECI KNYC 201329Z AUTO VRB04KT 9SM BKN027 19/13 A3031 RMK AO2
T01940133





000
SAUS41 KOKX 201255
MTRMTP
METAR KMTP 201254Z AUTO VRB04KT 18/12 A3034 RMK AO1 SLP273 T01780117





000
SAUS41 KOKX 201253
MTRNYC
METAR KNYC 201251Z AUTO VRB03KT 9SM SCT065 18/12 A3032 RMK AO2
SLP259 T01780122





000
SAUS41 KOKX 201155
MTRMTP
METAR KMTP 201154Z AUTO 00000KT 16/11 A3035 RMK AO1 SLP276 T01610111
10161 20111 58005





000
SAUS41 KOKX 201152
MTRNYC
METAR KNYC 201151Z AUTO 00000KT 9SM OVC075 17/12 A3032 RMK AO2
SLP259 T01670117 10167 20139 58008





000
SAUS41 KOKX 201055
MTRMTP
METAR KMTP 201054Z AUTO 00000KT 13/09 A3036 RMK AO1 SLP280 T01330094





000
SAUS41 KOKX 201053
MTRNYC
METAR KNYC 201051Z AUTO 00000KT 10SM SCT065 16/11 A3034 RMK AO2
SLP264 T01560111





000
SAUS41 KOKX 201031
MTRNYC
SPECI KNYC 201029Z AUTO 14004KT 10SM SCT028 BKN035 OVC065 15/11
A3033 RMK AO2 T01500111





000
SAUS41 KOKX 201016
MTRNYC
SPECI KNYC 201015Z AUTO 00000KT 10SM BKN027 BKN037 15/11 A3034 RMK
AO2 T01500111





000
SAUS41 KOKX 200955
MTRMTP
METAR KMTP 200954Z AUTO 10003KT 13/09 A3036 RMK AO1 SLP281 T01280094





000
SAUS41 KOKX 200952
MTRNYC
METAR KNYC 200951Z AUTO 00000KT 10SM FEW070 15/11 A3034 RMK AO2
SLP265 T01500111





000
SAUS41 KOKX 200855
MTRMTP
METAR KMTP 200854Z AUTO 00000KT 11/08 A3036 RMK AO1 SLP282 T01110083
56003





000
SAUS41 KOKX 200852
MTRNYC
METAR KNYC 200851Z AUTO 00000KT 10SM FEW036 14/11 A3035 RMK AO2
SLP267 T01440106 55001





000
SAUS41 KOKX 200755
MTRMTP
METAR KMTP 200754Z AUTO 09003KT 13/09 A3037 RMK AO1 SLP282 T01280089





000
SAUS41 KOKX 200753
MTRNYC
METAR KNYC 200751Z AUTO 00000KT 10SM BKN030 14/10 A3034 RMK AO2
SLP266 T01440100





000
SAUS41 KOKX 200655
MTRMTP
METAR KMTP 200654Z AUTO 00000KT 14/09 A3037 RMK AO1 SLP284 T01390089





000
SAUS41 KOKX 200652
MTRNYC
METAR KNYC 200651Z AUTO 00000KT 10SM SCT030 15/09 A3035 RMK AO2
SLP267 T01500094





000
SAUS41 KOKX 200555
MTRMTP
METAR KMTP 200554Z AUTO VRB04KT 14/08 A3037 RMK AO1 SLP285 T01390083
10139 20122 56016





000
SAUS41 KOKX 200553
MTRNYC
METAR KNYC 200551Z AUTO VRB03KT 10SM CLR 15/09 A3035 RMK AO2 SLP268
T01500089 10161 20150 56019





000
SAUS41 KOKX 200455
MTRMTP
METAR KMTP 200454Z AUTO VRB04KT 13/08 A3039 RMK AO1 SLP289 T01330078
401780122





000
SAUS41 KOKX 200453
MTRNYC
METAR KNYC 200451Z AUTO VRB04KT 10SM CLR 16/08 A3036 RMK AO2 SLP272
T01560083 401890122





000
SAUS41 KOKX 200355
MTRMTP
METAR KMTP 200354Z AUTO 09003KT 13/07 A3041 RMK AO1 SLP296 T01280072





000
SAUS41 KOKX 200353
MTRNYC
METAR KNYC 200351Z AUTO VRB03KT 10SM CLR 16/08 A3038 RMK AO2 SLP278
T01560078





000
SAUS41 KOKX 200255
MTRMTP
METAR KMTP 200254Z AUTO 09003KT 12/07 A3042 RMK AO1 SLP301 T01220067
50004





000
SAUS41 KOKX 200253
MTRNYC
METAR KNYC 200251Z AUTO VRB06KT 10SM BKN040 16/08 A3040 RMK AO2
SLP286 T01610078 50004





000
SAUS41 KOKX 200155
MTRMTP
METAR KMTP 200154Z AUTO 10005KT 13/06 A3042 RMK AO1 SLP302 T01280061





000
SAUS41 KOKX 200152
MTRNYC
METAR KNYC 200151Z AUTO 10007KT 070V150 10SM OVC037 16/08 A3041 RMK
AO2 SLP288 T01610078





000
SAUS41 KOKX 200055
MTRMTP
METAR KMTP 200054Z AUTO 10003KT 13/06 A3042 RMK AO1 SLP302 T01280061





000
SAUS41 KOKX 200052
MTRNYC
METAR KNYC 200051Z AUTO VRB03KT 10SM BKN036 16/08 A3040 RMK AO2
SLP286 T01560078





000
SAUS41 KOKX 192355
MTRMTP
METAR KMTP 192354Z AUTO 10003KT 13/07 A3041 RMK AO1 SLP297 T01280067
10167 20128 53008





000
SAUS41 KOKX 192352
MTRNYC
METAR KNYC 192351Z AUTO VRB04KT 10SM BKN033 16/08 A3039 RMK AO2
SLP283 T01610078 10189 20156 53010





000
SAUS41 KOKX 192255
MTRMTP
METAR KMTP 192254Z AUTO 09004KT 13/06 A3039 RMK AO1 SLP291 T01280056





000
SAUS41 KOKX 192252
MTRNYC
METAR KNYC 192251Z AUTO VRB04KT 10SM OVC035 17/08 A3037 RMK AO2
SLP275 T01670083





    US Dept of Commerce
    National Oceanic and Atmospheric Administration
    National Weather Service
    1325 East West Highway
    Silver Spring, MD 20910
    Page Author: NWS Internet Services Team
Disclaimer
Information Quality
Credits
Glossary
Privacy Policy
Freedom of Information Act (FOIA)
About Us
Career Opportunities